Time;durP1;ratioP1;P1;durP2;ratioP2;P2;SDS_P1;SDS_P2;PMS_P1;PMS_P2;Temp;Humidity;BMP_temperature;BMP_pressure;BME280_temperature;BME280_humidity;BME280_pressure;Samples;Min_cycle;Max_cycle;Signal;HPM_P1;HPM_P2
2022/01/13 00:01:42;;;;;;;45.90;13.93;;;;;;;2.70;94.40;103485.13;5038270;28;20029;-48
2022/01/13 00:04:10;;;;;;;42.40;14.23;;;;;;;2.79;94.76;103482.66;5036930;28;20036;-47
2022/01/13 00:06:37;;;;;;;41.45;13.93;;;;;;;2.80;94.29;103482.50;5031443;28;20021;-46
2022/01/13 00:09:04;;;;;;;39.28;14.70;;;;;;;2.85;94.44;103487.41;5030741;28;20032;-46
2022/01/13 00:11:30;;;;;;;38.38;13.63;;;;;;;2.83;94.48;103478.75;5034568;28;20021;-46
2022/01/13 00:14:23;;;;;;;46.78;14.10;;;;;;;2.88;94.23;103477.44;5038279;28;20029;-46
2022/01/13 00:19:45;;;;;;;40.45;14.93;;;;;;;2.94;93.33;103466.28;5035670;28;20036;-47
2022/01/13 00:24:59;;;;;;;;;;;;;;;2.80;94.99;103465.78;5036522;28;20468;-47
2022/01/13 00:27:28;;;;;;;44.03;14.93;;;;;;;2.89;95.02;103472.97;5035457;28;19920;-46
2022/01/13 00:29:55;;;;;;;48.58;16.20;;;;;;;2.96;94.29;103479.41;5039370;28;20021;-47
2022/01/13 00:32:24;;;;;;;53.13;17.33;;;;;;;3.00;93.62;103484.28;5038317;28;20033;-47
2022/01/13 00:34:49;;;;;;;47.15;14.77;;;;;;;2.98;94.07;103494.19;5037550;28;20051;-47
2022/01/13 00:37:15;;;;;;;54.72;17.13;;;;;;;3.04;93.81;103498.13;5035802;28;20486;-47
2022/01/13 00:39:40;;;;;;;49.00;16.08;;;;;;;3.04;94.33;103490.16;5036273;28;20112;-46
2022/01/13 00:42:06;;;;;;;53.42;15.52;;;;;;;2.97;94.62;103487.22;5035594;28;20104;-47
2022/01/13 00:44:36;;;;;;;56.00;17.40;;;;;;;3.00;94.79;103480.81;5037001;28;20068;-47
2022/01/13 00:47:05;;;;;;;54.28;16.85;;;;;;;3.04;94.14;103474.28;5038872;28;20510;-47
2022/01/13 00:49:30;;;;;;;55.63;16.42;;;;;;;3.01;95.08;103479.84;5039512;28;20037;-47
2022/01/13 00:51:56;;;;;;;45.63;15.32;;;;;;;3.03;96.17;103496.44;5036314;28;20036;-46
2022/01/13 00:54:22;;;;;;;54.75;16.15;;;;;;;3.02;95.77;103478.88;5036113;28;20259;-47
2022/01/13 00:56:47;;;;;;;53.78;15.93;;;;;;;3.07;94.83;103487.28;5036798;28;20071;-46
2022/01/13 00:59:15;;;;;;;47.50;16.63;;;;;;;3.02;96.47;103471.75;5036760;28;20387;-46
2022/01/13 01:01:44;;;;;;;49.88;17.23;;;;;;;3.04;96.06;103466.31;5037862;28;20101;-47
2022/01/13 01:04:10;;;;;;;49.58;14.38;;;;;;;2.99;96.62;103450.84;5035486;28;20029;-47
2022/01/13 01:06:36;;;;;;;59.90;17.52;;;;;;;3.09;95.86;103458.84;5034037;28;20196;-47
2022/01/13 01:09:03;;;;;;;47.38;15.52;;;;;;;3.16;94.97;103454.69;5036026;28;20108;-47
2022/01/13 01:11:29;;;;;;;60.80;16.25;;;;;;;3.21;94.34;103454.28;5034013;28;20028;-47
2022/01/13 01:13:56;;;;;;;58.42;16.50;;;;;;;3.16;94.40;103456.50;5037370;28;20035;-47
2022/01/13 01:16:22;;;;;;;58.25;17.38;;;;;;;3.15;95.18;103458.31;5037011;28;20116;-46
2022/01/13 01:18:54;;;;;;;56.08;16.98;;;;;;;3.18;94.75;103452.72;5035759;28;20028;-47
2022/01/13 01:26:41;;;;;;;57.40;16.40;;;;;;;3.19;95.14;103445.63;5035996;28;20208;-47
2022/01/13 01:29:58;;;;;;;62.28;19.27;;;;;;;3.13;95.84;103457.59;5037995;28;20064;-47
2022/01/13 01:31:57;;;;;;;58.28;16.95;;;;;;;3.15;96.72;103463.59;5029129;28;20322;-46
2022/01/13 01:36:52;;;;;;;54.22;15.93;;;;;;;3.17;97.05;103453.72;5037178;28;20046;-47
2022/01/13 01:39:18;;;;;;;52.50;17.25;;;;;;;3.26;96.44;103434.38;5036091;28;20021;-47
2022/01/13 01:41:48;;;;;;;51.85;16.42;;;;;;;3.20;97.09;103434.88;5036964;28;21133;-47
2022/01/13 01:44:18;;;;;;;54.47;15.93;;;;;;;3.23;97.37;103434.66;5034699;28;20654;-47
2022/01/13 01:46:46;;;;;;;53.53;16.15;;;;;;;3.29;96.94;103431.44;5033968;28;20043;-47
2022/01/13 01:49:19;;;;;;;57.25;15.43;;;;;;;3.33;96.30;103430.19;5036962;28;20636;-46
2022/01/13 01:51:47;;;;;;;52.95;15.45;;;;;;;3.38;96.19;103437.75;5036323;28;20435;-47
2022/01/13 01:54:13;;;;;;;50.47;15.75;;;;;;;3.34;97.00;103426.56;5035185;28;20439;-47
2022/01/13 01:56:40;;;;;;;51.38;16.35;;;;;;;3.38;97.41;103423.66;5034788;28;20159;-47
2022/01/13 01:59:08;;;;;;;46.80;15.05;;;;;;;3.44;95.71;103415.19;5035221;28;20021;-47
2022/01/13 02:01:34;;;;;;;48.92;14.85;;;;;;;3.46;95.89;103418.53;5032079;28;20029;-46
2022/01/13 02:04:00;;;;;;;57.67;16.45;;;;;;;3.48;95.38;103412.13;5035447;28;20104;-47
2022/01/13 02:06:26;;;;;;;56.35;16.63;;;;;;;3.48;96.00;103416.59;5035031;28;20562;-47
2022/01/13 02:08:51;;;;;;;53.45;15.82;;;;;;;3.45;96.10;103415.03;5031458;28;20490;-47
2022/01/13 02:11:17;;;;;;;51.67;17.15;;;;;;;3.41;96.48;103415.44;5035505;28;20132;-46
2022/01/13 02:13:49;;;;;;;44.80;16.13;;;;;;;3.36;96.75;103407.06;5035812;28;20441;-47
2022/01/13 02:18:59;;;;;;;53.85;15.55;;;;;;;3.42;97.73;103403.88;5033177;28;20179;-47
2022/01/13 02:21:26;;;;;;;53.15;15.55;;;;;;;3.31;98.50;103394.22;5037481;28;20034;-47
2022/01/13 02:23:53;;;;;;;49.33;15.63;;;;;;;3.42;98.26;103399.41;5033928;28;20029;-47
2022/01/13 02:26:19;;;;;;;52.80;16.38;;;;;;;3.42;99.11;103406.53;5034705;28;20068;-47
2022/01/13 02:28:45;;;;;;;56.40;17.25;;;;;;;3.47;98.77;103409.59;5035141;28;20125;-47
2022/01/13 02:31:12;;;;;;;55.22;16.13;;;;;;;3.44;99.38;103391.31;5034907;28;20025;-47
2022/01/13 02:33:39;;;;;;;60.67;16.85;;;;;;;3.53;98.79;103382.53;5037315;28;20086;-47
2022/01/13 02:36:06;;;;;;;47.53;16.00;;;;;;;3.51;99.04;103376.53;5039032;28;20564;-47
2022/01/13 02:38:32;;;;;;;52.35;16.23;;;;;;;3.54;98.66;103373.59;5034787;28;20578;-47
2022/01/13 02:40:59;;;;;;;50.47;16.33;;;;;;;3.62;97.36;103371.13;5035377;28;20120;-47
2022/01/13 02:43:25;;;;;;;43.17;14.80;;;;;;;3.59;98.54;103372.25;5036931;28;20029;-47
2022/01/13 02:48:53;;;;;;;54.30;14.60;;;;;;;3.68;98.33;103365.25;4998931;28;20041;-47
2022/01/13 02:51:18;;;;;;;50.75;14.93;;;;;;;3.69;98.03;103366.09;5027039;28;20045;-47
2022/01/13 02:53:44;;;;;;;45.30;14.45;;;;;;;3.64;99.19;103359.41;5033688;28;20029;-47
2022/01/13 02:56:09;;;;;;;45.63;15.90;;;;;;;3.63;99.79;103359.53;5033329;28;20021;-47
2022/01/13 02:58:35;;;;;;;41.92;14.77;;;;;;;3.73;98.61;103347.13;5035324;28;20095;-46
2022/01/13 03:01:02;;;;;;;36.78;13.07;;;;;;;3.70;98.64;103336.78;5031699;28;20034;-47
2022/01/13 03:03:30;;;;;;;41.45;14.88;;;;;;;3.78;98.73;103341.41;5035468;28;20028;-47
2022/01/13 03:05:56;;;;;;;52.58;14.77;;;;;;;3.80;98.05;103345.59;5033345;28;20025;-47
2022/01/13 03:08:21;;;;;;;40.95;14.23;;;;;;;3.82;98.18;103345.44;5030762;28;20059;-47
2022/01/13 03:10:47;;;;;;;48.25;13.27;;;;;;;3.88;97.55;103335.09;5033085;28;20034;-47
2022/01/13 03:13:13;;;;;;;39.20;13.57;;;;;;;3.89;97.86;103335.94;5034561;28;20548;-47
2022/01/13 03:15:38;;;;;;;43.53;14.20;;;;;;;3.81;98.63;103341.13;5039271;28;20117;-47
2022/01/13 03:18:04;;;;;;;45.83;13.70;;;;;;;3.89;97.80;103334.13;5039176;28;20026;-47
2022/01/13 03:20:30;;;;;;;36.92;12.25;;;;;;;3.86;97.76;103325.63;5039087;28;20403;-47
2022/01/13 03:22:55;;;;;;;40.75;13.30;;;;;;;3.83;98.46;103317.94;5038518;28;20029;-47
2022/01/13 03:25:22;;;;;;;40.83;12.85;;;;;;;3.85;98.92;103322.13;5035210;28;20028;-47
2022/01/13 03:27:56;;;;;;;36.67;12.05;;;;;;;3.77;99.09;103319.38;5038655;28;20049;-47
2022/01/13 03:30:22;;;;;;;32.40;12.27;;;;;;;3.83;99.37;103321.44;5037715;28;20116;-47
2022/01/13 03:32:47;;;;;;;36.90;11.88;;;;;;;3.91;98.74;103312.78;5036063;28;20112;-47
2022/01/13 03:35:14;;;;;;;39.03;13.25;;;;;;;3.89;99.16;103312.91;5038747;28;20040;-47
2022/01/13 03:37:39;;;;;;;41.55;13.32;;;;;;;3.95;98.12;103314.19;5036375;28;20037;-47
2022/01/13 03:40:05;;;;;;;33.42;11.90;;;;;;;3.93;98.74;103326.72;5038047;28;20035;-47
2022/01/13 03:42:31;;;;;;;39.35;11.93;;;;;;;3.89;99.13;103323.53;5038678;28;20418;-47
2022/01/13 03:44:58;;;;;;;35.08;12.27;;;;;;;3.91;99.76;103310.13;5036939;28;20418;-47
2022/01/13 03:47:24;;;;;;;39.70;12.85;;;;;;;3.95;98.82;103322.13;5036991;28;20190;-47
2022/01/13 03:49:50;;;;;;;37.17;12.48;;;;;;;3.95;98.61;103324.78;5038196;28;20542;-47
2022/01/13 03:52:57;;;;;;;35.25;12.13;;;;;;;3.91;98.76;103313.59;5037517;28;20363;-47
2022/01/13 03:55:35;;;;;;;36.03;12.05;;;;;;;3.87;99.30;103322.81;5036776;28;20033;-47
2022/01/13 03:58:38;;;;;;;39.00;13.30;;;;;;;3.92;99.46;103312.63;5035321;28;20033;-47
2022/01/13 04:01:41;;;;;;;32.60;11.65;;;;;;;3.94;98.77;103313.31;5034903;28;20513;-47
2022/01/13 04:04:06;;;;;;;42.13;14.30;;;;;;;4.01;98.47;103302.16;5038563;28;20447;-46
2022/01/13 04:06:34;;;;;;;34.88;12.20;;;;;;;3.96;98.48;103294.63;5036563;28;20037;-47
2022/01/13 04:09:00;;;;;;;33.15;11.73;;;;;;;3.91;99.01;103295.03;5037224;28;20056;-47
2022/01/13 04:11:29;;;;;;;36.90;12.40;;;;;;;3.97;98.35;103284.88;5038739;28;20278;-48
2022/01/13 04:14:02;;;;;;;36.17;11.80;;;;;;;4.00;98.03;103290.72;5038772;28;20032;-47
2022/01/13 04:16:31;;;;;;;44.75;12.45;;;;;;;4.03;97.86;103302.84;5038343;28;20175;-47
2022/01/13 04:19:03;;;;;;;36.90;12.13;;;;;;;3.99;98.55;103293.50;5034296;28;20038;-47
2022/01/13 04:21:29;;;;;;;34.65;12.65;;;;;;;3.93;98.96;103301.03;5035556;28;20074;-47
2022/01/13 04:23:56;;;;;;;34.33;10.65;;;;;;;3.91;99.86;103303.00;5038987;28;20025;-47
2022/01/13 04:26:28;;;;;;;34.33;11.48;;;;;;;3.94;99.48;103304.53;5037523;28;20108;-47
2022/01/13 04:31:38;;;;;;;34.28;11.48;;;;;;;4.00;99.09;103273.97;5036184;28;20096;-47
2022/01/13 04:34:04;;;;;;;35.20;11.98;;;;;;;4.03;98.89;103263.06;5036611;28;20052;-47
2022/01/13 04:36:29;;;;;;;38.90;11.45;;;;;;;4.03;99.18;103260.41;5034577;28;20037;-47
2022/01/13 04:38:55;;;;;;;36.58;11.70;;;;;;;4.01;99.26;103262.38;5035975;28;20044;-47
2022/01/13 04:41:35;;;;;;;29.60;10.85;;;;;;;4.03;99.98;103273.66;5037061;28;20044;-47
2022/01/13 04:44:02;;;;;;;34.42;11.95;;;;;;;4.07;99.21;103278.53;5034084;28;20068;-47
2022/01/13 04:46:28;;;;;;;35.08;11.30;;;;;;;4.02;98.85;103272.00;5036829;28;20040;-47
2022/01/13 04:48:53;;;;;;;35.97;10.70;;;;;;;4.05;99.01;103275.19;5035632;28;20025;-47
2022/01/13 04:51:19;;;;;;;34.63;11.20;;;;;;;4.06;98.97;103284.00;5034827;28;20026;-47
2022/01/13 04:53:45;;;;;;;31.52;11.13;;;;;;;4.12;98.31;103288.72;5035321;28;20033;-47
2022/01/13 04:56:26;;;;;;;35.72;10.57;;;;;;;4.06;98.85;103287.47;5034810;28;20120;-47
2022/01/13 04:58:51;;;;;;;34.88;11.27;;;;;;;4.06;98.77;103290.13;5035992;28;20021;-47
2022/01/13 05:01:17;;;;;;;32.90;12.13;;;;;;;4.10;98.89;103288.84;5036834;28;20075;-46
2022/01/13 05:03:42;;;;;;;30.95;10.45;;;;;;;4.09;99.14;103289.00;5034796;28;20028;-47
2022/01/13 05:06:08;;;;;;;30.80;11.43;;;;;;;4.08;99.14;103287.34;5032623;28;20483;-46
2022/01/13 05:08:34;;;;;;;34.90;12.75;;;;;;;4.03;99.99;103289.59;5035521;28;20064;-47
2022/01/13 05:10:59;;;;;;;34.72;12.68;;;;;;;4.14;99.23;103286.78;5036544;28;20107;-47
2022/01/13 05:13:25;;;;;;;32.40;10.32;;;;;;;4.16;99.22;103295.44;5034795;28;20487;-47
2022/01/13 05:15:53;;;;;;;32.35;11.63;;;;;;;4.13;99.10;103290.38;5035461;28;20495;-47
2022/01/13 05:20:58;;;;;;;33.03;12.07;;;;;;;4.18;98.98;103277.53;5033024;28;20507;-47
2022/01/13 05:23:25;;;;;;;36.88;11.85;;;;;;;4.20;99.45;103270.28;5036657;28;20025;-47
2022/01/13 05:25:50;;;;;;;34.72;10.63;;;;;;;4.22;98.48;103268.31;5034379;28;21848;-47
2022/01/13 05:28:16;;;;;;;39.72;12.85;;;;;;;4.13;99.32;103266.50;5035964;28;20021;-47
2022/01/13 05:30:41;;;;;;;31.13;11.63;;;;;;;4.13;98.79;103262.06;5031815;28;20426;-47
2022/01/13 05:33:07;;;;;;;36.03;11.18;;;;;;;4.10;100.00;103272.09;5035781;28;20552;-47
2022/01/13 05:35:34;;;;;;;36.35;12.73;;;;;;;4.15;99.48;103272.53;5032915;28;20040;-47
2022/01/13 05:38:00;;;;;;;32.20;12.00;;;;;;;4.13;99.11;103272.69;5036310;28;20094;-47
2022/01/13 05:40:26;;;;;;;31.15;10.98;;;;;;;4.13;99.92;103282.41;5035480;28;20033;-47
2022/01/13 05:42:51;;;;;;;34.72;10.95;;;;;;;4.19;99.24;103274.75;5034538;28;20045;-47
2022/01/13 05:45:19;;;;;;;38.47;11.80;;;;;;;4.12;99.89;103284.25;5035307;28;20017;-47
2022/01/13 05:47:48;;;;;;;39.78;12.30;;;;;;;4.20;100.00;103280.88;5034015;28;20061;-47
2022/01/13 05:50:15;;;;;;;35.60;11.55;;;;;;;4.16;100.00;103296.25;5032034;28;20418;-48
2022/01/13 05:52:41;;;;;;;39.30;11.65;;;;;;;4.14;100.00;103308.84;5033737;28;20033;-47
2022/01/13 05:55:07;;;;;;;40.17;11.57;;;;;;;4.15;100.00;103307.88;5037261;28;20039;-47
2022/01/13 05:57:33;;;;;;;36.38;11.85;;;;;;;4.17;100.00;103289.13;5035465;28;20475;-47
2022/01/13 05:59:58;;;;;;;41.80;12.38;;;;;;;4.18;100.00;103304.91;5036065;28;20051;-47
2022/01/13 06:02:24;;;;;;;43.10;13.60;;;;;;;4.19;100.00;103292.47;5036983;28;20029;-47
2022/01/13 06:04:49;;;;;;;32.10;10.98;;;;;;;4.18;100.00;103296.97;5032085;28;20028;-47
2022/01/13 06:07:16;;;;;;;34.88;13.13;;;;;;;4.15;100.00;103288.44;5036523;28;20593;-47
2022/01/13 06:09:42;;;;;;;32.55;12.25;;;;;;;4.15;100.00;103285.78;5033964;28;20036;-47
2022/01/13 06:12:08;;;;;;;36.85;13.43;;;;;;;4.21;100.00;103298.47;5034267;28;20051;-47
2022/01/13 06:14:34;;;;;;;34.42;11.68;;;;;;;4.24;100.00;103303.50;5033574;28;20029;-47
2022/01/13 06:16:59;;;;;;;38.97;12.63;;;;;;;4.28;100.00;103309.34;5036984;28;20025;-47
2022/01/13 06:19:24;;;;;;;33.00;11.60;;;;;;;4.28;100.00;103304.03;5035397;28;20044;-47
2022/01/13 06:21:50;;;;;;;37.15;12.65;;;;;;;4.22;100.00;103310.75;5032013;28;20108;-46
2022/01/13 06:24:15;;;;;;;39.97;12.38;;;;;;;4.25;100.00;103321.94;5036199;28;20021;-47
2022/01/13 06:26:41;;;;;;;35.08;11.30;;;;;;;4.24;100.00;103317.59;5034630;28;20505;-47
2022/01/13 06:29:07;;;;;;;42.00;12.98;;;;;;;4.30;100.00;103318.00;5032524;28;20047;-47
2022/01/13 06:31:32;;;;;;;39.33;12.13;;;;;;;4.22;100.00;103324.03;5033686;28;20030;-47
2022/01/13 06:33:58;;;;;;;48.00;14.30;;;;;;;4.24;100.00;103330.88;5034954;28;20117;-47
2022/01/13 06:36:23;;;;;;;41.67;14.48;;;;;;;4.24;100.00;103327.38;5038765;28;20040;-47
2022/01/13 06:38:50;;;;;;;37.25;13.07;;;;;;;4.18;100.00;103325.31;5033572;28;20385;-47
2022/01/13 06:41:17;;;;;;;42.55;13.68;;;;;;;4.21;100.00;103303.78;5036613;28;20120;-47
2022/01/13 06:43:43;;;;;;;37.65;12.40;;;;;;;4.21;100.00;103294.00;5033479;28;20036;-48
2022/01/13 06:46:11;;;;;;;44.10;13.80;;;;;;;4.25;100.00;103281.28;5031595;28;20072;-47
2022/01/13 06:48:37;;;;;;;45.22;13.63;;;;;;;4.23;100.00;103281.44;5029873;28;20033;-47
2022/01/13 06:51:02;;;;;;;40.33;13.15;;;;;;;4.22;100.00;103295.69;5038642;28;20025;-47
2022/01/13 06:53:28;;;;;;;44.85;14.00;;;;;;;4.29;100.00;103290.63;5038922;28;20481;-46
2022/01/13 06:55:53;;;;;;;42.95;13.50;;;;;;;4.31;100.00;103291.34;5038317;28;20032;-48
2022/01/13 06:58:19;;;;;;;33.50;11.98;;;;;;;4.27;100.00;103291.75;5040045;28;20017;-47
2022/01/13 07:00:44;;;;;;;37.45;12.90;;;;;;;4.32;100.00;103298.31;5037448;28;20021;-47
2022/01/13 07:03:10;;;;;;;35.15;12.25;;;;;;;4.31;100.00;103294.00;5037565;28;20392;-47
2022/01/13 07:05:35;;;;;;;38.72;13.80;;;;;;;4.28;100.00;103299.56;5038875;28;20029;-47
2022/01/13 07:08:02;;;;;;;45.60;13.55;;;;;;;4.30;100.00;103310.88;5039001;28;20608;-47
2022/01/13 07:10:28;;;;;;;38.13;12.98;;;;;;;4.35;100.00;103319.25;5039156;28;20052;-47
2022/01/13 07:12:54;;;;;;;33.70;12.63;;;;;;;4.31;100.00;103301.97;5037360;28;20252;-47
2022/01/13 07:15:19;;;;;;;46.65;13.30;;;;;;;4.34;100.00;103282.25;5038789;28;20032;-47
2022/01/13 07:17:46;;;;;;;39.30;12.52;;;;;;;4.34;100.00;103288.41;5034113;28;20030;-50
2022/01/13 07:20:12;;;;;;;38.38;12.48;;;;;;;4.35;100.00;103279.44;5039118;28;20025;-48
2022/01/13 07:22:39;;;;;;;44.15;13.98;;;;;;;4.36;100.00;103299.69;5037966;28;20478;-47
2022/01/13 07:25:06;;;;;;;41.35;13.45;;;;;;;4.40;100.00;103292.28;5039300;28;20029;-47
2022/01/13 07:27:32;;;;;;;37.25;12.43;;;;;;;4.42;100.00;103312.38;5037815;28;20037;-48
2022/01/13 07:29:57;;;;;;;33.88;11.65;;;;;;;4.40;100.00;103314.34;5038366;28;20029;-47
2022/01/13 07:32:23;;;;;;;33.17;12.23;;;;;;;4.43;100.00;103314.06;5039058;28;20031;-47
2022/01/13 07:34:48;;;;;;;39.10;12.50;;;;;;;4.44;100.00;103321.03;5037475;28;20029;-48
2022/01/13 07:37:14;;;;;;;41.58;11.77;;;;;;;4.39;100.00;103323.28;5039297;28;20112;-47
2022/01/13 07:39:40;;;;;;;41.35;11.57;;;;;;;4.42;100.00;103333.63;5038849;28;20604;-47
2022/01/13 07:42:06;;;;;;;32.95;11.27;;;;;;;4.47;100.00;103336.66;5037357;28;20156;-48
2022/01/13 07:44:32;;;;;;;29.65;11.32;;;;;;;4.43;100.00;103334.44;5039401;28;20029;-49
2022/01/13 07:46:59;;;;;;;36.35;11.88;;;;;;;4.44;100.00;103330.81;5037863;28;20033;-47
2022/01/13 07:49:25;;;;;;;35.17;12.23;;;;;;;4.45;100.00;103333.31;5035304;28;20029;-47
2022/01/13 07:51:50;;;;;;;37.45;12.32;;;;;;;4.45;100.00;103333.31;5037674;28;20029;-47
2022/01/13 07:54:16;;;;;;;35.20;12.02;;;;;;;4.52;100.00;103342.41;5039672;28;20029;-46
2022/01/13 07:56:41;;;;;;;31.83;12.32;;;;;;;4.49;100.00;103329.41;5035147;28;20434;-48
2022/01/13 07:59:07;;;;;;;33.25;11.95;;;;;;;4.52;100.00;103331.78;5039199;28;20469;-47
2022/01/13 08:01:34;;;;;;;38.92;13.23;;;;;;;4.49;100.00;103324.13;5037039;28;20460;-48
2022/01/13 08:03:59;;;;;;;37.35;11.35;;;;;;;4.57;100.00;103322.53;5038447;28;20036;-47
2022/01/13 08:06:25;;;;;;;36.38;10.82;;;;;;;4.60;100.00;103315.09;5038425;28;20032;-47
2022/01/13 08:08:50;;;;;;;35.38;11.88;;;;;;;4.53;100.00;103319.34;5037203;28;20333;-47
2022/01/13 08:11:16;;;;;;;34.03;11.38;;;;;;;4.59;100.00;103321.41;5035844;28;20437;-47
2022/01/13 08:13:42;;;;;;;33.78;11.38;;;;;;;4.68;100.00;103330.34;5037456;28;20672;-49
2022/01/13 08:16:09;;;;;;;33.50;11.13;;;;;;;4.70;100.00;103333.69;5038939;28;20447;-47
2022/01/13 08:21:20;;;;;;;33.20;11.68;;;;;;;4.72;100.00;103331.72;5037296;28;20027;-47
2022/01/13 08:23:45;;;;;;;28.50;11.25;;;;;;;4.72;99.79;103329.06;5036294;28;20460;-47
2022/01/13 08:26:11;;;;;;;35.63;11.90;;;;;;;4.68;99.93;103322.38;5036581;28;20207;-47
2022/01/13 08:28:37;;;;;;;33.83;10.98;;;;;;;4.67;100.00;103331.28;5035289;28;20231;-47
2022/01/13 08:31:06;;;;;;;32.20;10.45;;;;;;;4.77;100.00;103327.63;5038072;28;20372;-48
2022/01/13 08:33:32;;;;;;;32.83;11.25;;;;;;;4.69;100.00;103326.69;5038026;28;20570;-47
2022/01/13 08:35:58;;;;;;;29.33;10.52;;;;;;;4.78;99.92;103323.16;5036790;28;20041;-47
2022/01/13 08:38:24;;;;;;;35.72;10.85;;;;;;;4.77;100.00;103319.66;5037672;28;20029;-47
2022/01/13 08:40:57;;;;;;;30.63;10.93;;;;;;;4.73;100.00;103314.78;5034814;28;20289;-47
2022/01/13 08:43:24;;;;;;;31.13;10.30;;;;;;;4.79;100.00;103314.19;5038405;28;20036;-47
2022/01/13 08:45:50;;;;;;;29.38;11.02;;;;;;;4.85;99.60;103313.63;5036516;28;20559;-47
2022/01/13 08:48:16;;;;;;;27.95;10.35;;;;;;;4.84;99.02;103315.41;5038696;28;20060;-47
2022/01/13 08:50:42;;;;;;;33.15;10.93;;;;;;;4.84;98.62;103307.44;5036438;28;20112;-49
2022/01/13 08:53:08;;;;;;;33.65;11.95;;;;;;;4.83;98.56;103304.94;5038195;28;20125;-48
2022/01/13 08:55:34;;;;;;;24.50;9.23;;;;;;;4.82;98.98;103301.44;5034922;28;20047;-49
2022/01/13 08:57:59;;;;;;;29.75;10.35;;;;;;;4.87;98.86;103301.03;5037577;28;20087;-49
2022/01/13 09:00:25;;;;;;;33.15;10.52;;;;;;;4.79;99.27;103296.44;5038142;28;20024;-47
2022/01/13 09:02:51;;;;;;;25.23;10.55;;;;;;;4.89;98.55;103292.91;5036345;28;20029;-47
2022/01/13 09:05:19;;;;;;;26.42;10.32;;;;;;;4.88;98.32;103305.34;5038265;28;20560;-49
2022/01/13 09:07:45;;;;;;;28.67;11.00;;;;;;;4.85;98.96;103297.69;5035783;28;20029;-47
2022/01/13 09:10:12;;;;;;;31.83;10.43;;;;;;;4.90;98.13;103291.91;5036947;28;20509;-47
2022/01/13 09:12:38;;;;;;;26.50;10.25;;;;;;;4.90;98.15;103286.59;5035432;28;20159;-47
2022/01/13 09:15:16;;;;;;;30.20;10.35;;;;;;;4.90;98.27;103292.75;5037328;28;20055;-47
2022/01/13 09:17:51;;;;;;;34.88;11.63;;;;;;;4.80;98.90;103297.25;5036034;28;20483;-47
2022/01/13 09:20:17;;;;;;;;;;;;;;;4.83;98.95;103295.16;5036601;28;20175;-48
2022/01/13 09:22:43;;;;;;;28.77;9.93;;;;;;;4.89;98.78;103288.44;5035616;28;19917;-47
2022/01/13 09:25:13;;;;;;;30.17;11.20;;;;;;;4.95;98.58;103308.25;5034337;28;20033;-47
2022/01/13 09:27:40;;;;;;;30.10;10.48;;;;;;;4.98;98.86;103308.78;5034742;28;20025;-47
2022/01/13 09:30:08;;;;;;;28.75;9.85;;;;;;;4.99;98.26;103297.16;5037360;28;20029;-47
2022/01/13 09:32:36;;;;;;;24.80;9.90;;;;;;;5.01;98.45;103294.34;5037179;28;20039;-48
2022/01/13 09:35:04;;;;;;;25.48;10.30;;;;;;;5.04;98.27;103286.09;5037595;28;20064;-47
2022/01/13 09:37:30;;;;;;;28.48;10.75;;;;;;;5.06;98.45;103284.97;5036970;28;20106;-47
2022/01/13 09:39:56;;;;;;;31.48;10.90;;;;;;;5.15;98.12;103286.72;5030589;28;20021;-48
2022/01/13 09:42:23;;;;;;;28.92;9.98;;;;;;;5.17;98.00;103283.91;5035337;28;20115;-48
2022/01/13 09:44:49;;;;;;;32.03;10.73;;;;;;;5.23;97.75;103282.47;5034925;28;20032;-47
2022/01/13 09:47:15;;;;;;;28.25;10.60;;;;;;;5.19;97.18;103275.78;5033995;28;20075;-47
2022/01/13 09:49:43;;;;;;;26.02;10.95;;;;;;;5.27;97.65;103283.84;5035877;28;20029;-48
2022/01/13 09:52:09;;;;;;;30.90;9.65;;;;;;;5.26;97.41;103287.50;5037608;28;20518;-48
2022/01/13 09:54:35;;;;;;;34.42;12.27;;;;;;;5.29;97.43;103279.22;5035900;28;20043;-49
2022/01/13 09:57:00;;;;;;;28.92;10.32;;;;;;;5.34;97.39;103277.75;5036728;28;20482;-47
2022/01/13 09:59:26;;;;;;;27.95;9.93;;;;;;;5.33;96.98;103283.22;5036933;28;20291;-47
2022/01/13 10:01:51;;;;;;;25.48;10.02;;;;;;;5.35;97.03;103278.59;5033793;28;20048;-47
2022/01/13 10:04:18;;;;;;;25.48;9.55;;;;;;;5.39;96.85;103274.66;5037365;28;20032;-49
2022/01/13 10:06:47;;;;;;;25.52;10.20;;;;;;;5.40;97.02;103273.69;5035266;28;20046;-47
2022/01/13 10:09:13;;;;;;;30.30;11.43;;;;;;;5.45;96.57;103268.72;5036854;28;20021;-47
2022/01/13 10:11:43;;;;;;;27.23;9.77;;;;;;;5.48;96.57;103273.75;5035103;28;20035;-47
2022/01/13 10:17:01;;;;;;;26.05;9.05;;;;;;;5.48;96.37;103252.47;5003011;28;20048;-48
2022/01/13 10:19:26;;;;;;;30.80;11.35;;;;;;;5.53;96.70;103257.31;5036592;28;20033;-48
2022/01/13 10:21:57;;;;;;;24.60;9.93;;;;;;;5.51;96.55;103248.66;5035020;28;21040;-47
2022/01/13 10:24:28;;;;;;;27.83;10.63;;;;;;;5.59;96.41;103249.59;5039775;28;20051;-49
2022/01/13 10:27:03;;;;;;;26.60;10.10;;;;;;;5.60;96.18;103245.94;5038625;28;20033;-48
2022/01/13 10:29:44;;;;;;;25.83;9.23;;;;;;;5.60;95.87;103250.41;5039417;28;20092;-48
2022/01/13 10:32:12;;;;;;;25.63;10.50;;;;;;;5.74;95.15;103252.50;5040416;28;20033;-48
2022/01/13 10:34:41;;;;;;;23.02;8.75;;;;;;;5.71;95.41;103248.31;5039977;28;20248;-48
2022/01/13 10:37:11;;;;;;;25.67;9.85;;;;;;;5.78;94.69;103240.59;5040570;28;20036;-48
2022/01/13 10:40:01;;;;;;;23.02;9.45;;;;;;;5.73;95.10;103245.50;5040070;28;20029;-50
2022/01/13 10:45:09;;;;;;;26.42;10.27;;;;;;;5.78;94.74;103245.91;5040074;28;20045;-48
2022/01/13 10:47:35;;;;;;;22.17;8.98;;;;;;;5.81;94.69;103244.75;5038658;28;20025;-47
2022/01/13 10:50:13;;;;;;;22.92;10.00;;;;;;;5.81;94.40;103236.78;5037868;28;20056;-48
2022/01/13 10:52:39;;;;;;;20.90;9.73;;;;;;;5.85;94.05;103238.13;5039224;28;20032;-47
2022/01/13 10:55:13;;;;;;;26.27;10.40;;;;;;;5.87;93.86;103236.13;5040223;28;20390;-48
2022/01/13 10:57:43;;;;;;;23.97;9.83;;;;;;;5.83;93.83;103229.47;5038079;28;20490;-47
2022/01/13 11:00:23;;;;;;;25.65;10.10;;;;;;;5.88;93.42;103224.50;5038533;28;20275;-47
2022/01/13 11:03:14;;;;;;;23.38;9.00;;;;;;;5.83;93.66;103224.16;5037629;28;20021;-47
2022/01/13 11:06:01;;;;;;;24.35;9.55;;;;;;;5.86;93.31;103226.50;5035812;28;20029;-48
2022/01/13 11:08:26;;;;;;;22.23;8.75;;;;;;;5.96;93.45;103233.41;5038647;28;20068;-50
2022/01/13 11:10:55;;;;;;;27.00;10.13;;;;;;;5.94;93.22;103219.44;5038437;28;20487;-48
2022/01/13 11:13:23;;;;;;;26.88;9.20;;;;;;;5.97;92.78;103215.63;5040145;28;20025;-47
2022/01/13 11:15:55;;;;;;;24.10;9.32;;;;;;;5.98;92.53;103225.28;5037119;28;20024;-47
2022/01/13 11:18:29;;;;;;;23.13;9.70;;;;;;;5.98;92.35;103225.28;5038652;28;20086;-47
2022/01/13 11:20:55;;;;;;;22.38;9.00;;;;;;;6.02;91.98;103218.63;5034800;28;20156;-47
2022/01/13 11:23:22;;;;;;;24.23;9.32;;;;;;;6.00;92.07;103212.66;5039233;28;20107;-47
2022/01/13 11:25:51;;;;;;;26.95;8.98;;;;;;;6.07;92.46;103208.34;5038168;28;20769;-47
2022/01/13 11:28:16;;;;;;;24.20;10.05;;;;;;;6.06;91.92;103212.00;5037787;28;20132;-49
2022/01/13 11:30:42;;;;;;;24.70;10.38;;;;;;;6.10;92.13;103216.00;5038617;28;20579;-49
2022/01/13 11:33:08;;;;;;;25.50;9.35;;;;;;;6.09;91.70;103213.50;5037520;28;20022;-47
2022/01/13 11:35:45;;;;;;;24.60;8.95;;;;;;;6.08;91.73;103212.69;5033706;28;20032;-51
2022/01/13 11:38:13;;;;;;;26.42;9.52;;;;;;;6.14;91.50;103212.06;5035278;28;20028;-47
2022/01/13 11:40:44;;;;;;;20.70;9.27;;;;;;;6.19;91.38;103209.75;5037532;28;20025;-47
2022/01/13 11:43:27;;;;;;;20.52;9.00;;;;;;;6.22;90.92;103206.75;5037225;28;20021;-49
2022/01/13 11:45:52;;;;;;;24.17;8.95;;;;;;;6.23;90.92;103205.78;5038227;28;20025;-47
2022/01/13 11:48:28;;;;;;;21.20;9.35;;;;;;;6.20;90.40;103200.78;5039617;28;20028;-47
2022/01/13 11:51:15;;;;;;;23.30;8.88;;;;;;;6.21;90.17;103199.78;5037276;28;20025;-48
2022/01/13 11:53:56;;;;;;;22.17;8.38;;;;;;;6.23;90.44;103199.63;5033659;28;20033;-47